TimePST,TemperatureF,Dew PointF,Humidity,Sea Level PressureIn,VisibilityMPH,Wind Direction,Wind SpeedMPH,Gust SpeedMPH,PrecipitationIn,Events,Conditions,WindDirDegrees,DateUTC
12:15 AM,26.6,24.8,93,30.30,5.0,Calm,Calm,-,N/A,,Unknown,0,2013-01-18 08:15:00
12:35 AM,24.8,23.0,93,30.30,7.0,Calm,Calm,-,N/A,,Unknown,0,2013-01-18 08:35:00
12:55 AM,24.8,23.0,93,30.30,7.0,Calm,Calm,-,N/A,,Unknown,0,2013-01-18 08:55:00
1:15 AM,24.8,23.0,93,30.30,9.0,Calm,Calm,-,N/A,,Unknown,0,2013-01-18 09:15:00
1:35 AM,24.8,23.0,93,30.30,10.0,Calm,Calm,-,N/A,,Unknown,0,2013-01-18 09:35:00
1:55 AM,24.8,23.0,93,30.30,10.0,Calm,Calm,-,N/A,,Unknown,0,2013-01-18 09:55:00
2:15 AM,24.8,23.0,93,30.30,10.0,Calm,Calm,-,N/A,,Unknown,0,2013-01-18 10:15:00
2:35 AM,24.8,23.0,93,30.30,10.0,Calm,Calm,-,N/A,,Unknown,0,2013-01-18 10:35:00
2:55 AM,23.0,23.0,100,30.30,10.0,Calm,Calm,-,N/A,,Unknown,0,2013-01-18 10:55:00
3:15 AM,23.0,23.0,100,30.30,10.0,Calm,Calm,-,N/A,,Unknown,0,2013-01-18 11:15:00
3:35 AM,23.0,21.2,93,30.30,10.0,Calm,Calm,-,N/A,,Unknown,0,2013-01-18 11:35:00
3:55 AM,23.0,21.2,93,30.29,10.0,Calm,Calm,-,N/A,,Unknown,0,2013-01-18 11:55:00
4:15 AM,23.0,21.2,93,30.29,10.0,Calm,Calm,-,N/A,,Unknown,0,2013-01-18 12:15:00
4:35 AM,23.0,19.4,86,30.29,10.0,Calm,Calm,-,N/A,,Unknown,0,2013-01-18 12:35:00
4:55 AM,23.0,19.4,86,30.29,10.0,Calm,Calm,-,N/A,,Unknown,0,2013-01-18 12:55:00
5:15 AM,21.2,19.4,93,30.29,10.0,Calm,Calm,-,N/A,,Unknown,0,2013-01-18 13:15:00
5:55 AM,21.2,19.4,93,30.29,10.0,Calm,Calm,-,N/A,,Unknown,0,2013-01-18 13:55:00
6:15 AM,19.4,17.6,93,30.29,8.0,Calm,Calm,-,N/A,,Unknown,0,2013-01-18 14:15:00
6:35 AM,19.4,17.6,93,30.29,10.0,Calm,Calm,-,N/A,,Unknown,0,2013-01-18 14:35:00
6:55 AM,19.4,17.6,93,30.30,7.0,Calm,Calm,-,N/A,,Unknown,0,2013-01-18 14:55:00
7:15 AM,19.4,17.6,93,30.30,8.0,Calm,Calm,-,N/A,,Unknown,0,2013-01-18 15:15:00
7:35 AM,19.4,17.6,93,30.31,5.0,Calm,Calm,-,N/A,,Unknown,0,2013-01-18 15:35:00
8:15 AM,19.4,17.6,93,30.32,6.0,Calm,Calm,-,N/A,,Unknown,0,2013-01-18 16:15:00
8:35 AM,21.2,19.4,93,30.33,0.5,Calm,Calm,-,N/A,,Unknown,0,2013-01-18 16:35:00
8:55 AM,23.0,19.4,86,30.33,2.5,Calm,Calm,-,N/A,,Unknown,0,2013-01-18 16:55:00
9:15 AM,23.0,23.0,100,30.34,8.0,Calm,Calm,-,N/A,,Unknown,0,2013-01-18 17:15:00
9:35 AM,24.8,23.0,93,30.34,7.0,Calm,Calm,-,N/A,,Unknown,0,2013-01-18 17:35:00
9:55 AM,26.6,24.8,93,30.34,7.0,Calm,Calm,-,N/A,,Unknown,0,2013-01-18 17:55:00
10:15 AM,28.4,26.6,93,30.33,9.0,SSW,3.5,-,N/A,,Unknown,210,2013-01-18 18:15:00
10:35 AM,30.2,26.6,86,30.33,9.0,SSW,3.5,-,N/A,,Unknown,210,2013-01-18 18:35:00
10:55 AM,32.0,28.4,87,30.32,10.0,Calm,Calm,-,N/A,,Unknown,0,2013-01-18 18:55:00
11:15 AM,35.6,28.4,75,30.31,10.0,Calm,Calm,-,N/A,,Unknown,0,2013-01-18 19:15:00
11:35 AM,37.4,28.4,70,30.30,10.0,Calm,Calm,-,N/A,,Unknown,0,2013-01-18 19:35:00
12:15 PM,41.0,28.4,61,30.27,10.0,Calm,Calm,-,N/A,,Unknown,0,2013-01-18 20:15:00
12:35 PM,44.6,26.6,49,30.26,10.0,Calm,Calm,-,N/A,,Unknown,0,2013-01-18 20:35:00
12:55 PM,44.6,24.8,46,30.25,10.0,Calm,Calm,-,N/A,,Unknown,0,2013-01-18 20:55:00
1:15 PM,46.4,24.8,43,30.25,10.0,Calm,Calm,-,N/A,,Unknown,0,2013-01-18 21:15:00
1:35 PM,48.2,26.6,43,30.24,10.0,Calm,Calm,-,N/A,,Unknown,0,2013-01-18 21:35:00
1:55 PM,50.0,24.8,37,30.24,10.0,Calm,Calm,-,N/A,,Unknown,0,2013-01-18 21:55:00
2:15 PM,50.0,26.6,40,30.23,10.0,Calm,Calm,-,N/A,,Unknown,0,2013-01-18 22:15:00
2:35 PM,51.8,26.6,38,30.22,10.0,Calm,Calm,-,N/A,,Unknown,0,2013-01-18 22:35:00
2:55 PM,53.6,28.4,38,30.22,10.0,Calm,Calm,-,N/A,,Unknown,0,2013-01-18 22:55:00
3:15 PM,53.6,26.6,35,30.22,10.0,Calm,Calm,-,N/A,,Unknown,0,2013-01-18 23:15:00
3:35 PM,53.6,28.4,38,30.22,10.0,SSW,3.5,-,N/A,,Unknown,210,2013-01-18 23:35:00
3:55 PM,53.6,30.2,41,30.22,10.0,SSW,3.5,-,N/A,,Unknown,210,2013-01-18 23:55:00
4:15 PM,51.8,32.0,47,30.22,10.0,Calm,Calm,-,N/A,,Unknown,0,2013-01-19 00:15:00
4:35 PM,48.2,32.0,54,30.22,9.0,Calm,Calm,-,N/A,,Unknown,0,2013-01-19 00:35:00
4:55 PM,41.0,30.2,65,30.23,9.0,Calm,Calm,-,N/A,,Unknown,0,2013-01-19 00:55:00
5:15 PM,37.4,28.4,70,30.23,8.0,Calm,Calm,-,N/A,,Unknown,0,2013-01-19 01:15:00
5:55 PM,33.8,28.4,81,30.24,7.0,Calm,Calm,-,N/A,,Unknown,0,2013-01-19 01:55:00
6:15 PM,32.0,28.4,87,30.25,9.0,Calm,Calm,-,N/A,,Unknown,0,2013-01-19 02:15:00
6:35 PM,32.0,28.4,87,30.25,8.0,Calm,Calm,-,N/A,,Unknown,0,2013-01-19 02:35:00
6:55 PM,32.0,28.4,87,30.25,10.0,NNE,3.5,-,N/A,,Unknown,20,2013-01-19 02:55:00
7:15 PM,32.0,26.6,80,30.26,8.0,Calm,Calm,-,N/A,,Unknown,0,2013-01-19 03:15:00
7:35 PM,30.2,26.6,86,30.26,10.0,Calm,Calm,-,N/A,,Unknown,0,2013-01-19 03:35:00
7:55 PM,28.4,26.6,93,30.26,9.0,Calm,Calm,-,N/A,,Unknown,0,2013-01-19 03:55:00
8:15 PM,28.4,26.6,93,30.26,8.0,Calm,Calm,-,N/A,,Unknown,0,2013-01-19 04:15:00
8:35 PM,28.4,26.6,93,30.27,8.0,Calm,Calm,-,N/A,,Unknown,0,2013-01-19 04:35:00
8:55 PM,28.4,26.6,93,30.27,10.0,NNE,4.6,-,N/A,,Unknown,20,2013-01-19 04:55:00
9:15 PM,28.4,26.6,93,30.27,6.0,Calm,Calm,-,N/A,,Unknown,0,2013-01-19 05:15:00
9:55 PM,26.6,24.8,93,30.27,9.0,Calm,Calm,-,N/A,,Unknown,0,2013-01-19 05:55:00
10:15 PM,26.6,24.8,93,30.27,8.0,Calm,Calm,-,N/A,,Unknown,0,2013-01-19 06:15:00
10:35 PM,26.6,24.8,93,30.27,10.0,NNE,3.5,-,N/A,,Unknown,20,2013-01-19 06:35:00
10:55 PM,26.6,24.8,93,30.27,10.0,Calm,Calm,-,N/A,,Unknown,0,2013-01-19 06:55:00
11:15 PM,26.6,24.8,93,30.28,10.0,Calm,Calm,-,N/A,,Unknown,0,2013-01-19 07:15:00
11:55 PM,24.8,24.8,100,30.28,9.0,Calm,Calm,-,N/A,,Unknown,0,2013-01-19 07:55:00